Terminal Aerodrome Forecast
Issued by NWS North Platte, NE

Home | Current Version | Previous Version | Text Only | Print | Product List | Glossary On
Versions: 1 2 3 4 5 6 7 8 9 10 11 12 13 14 15 16 17 18 19 20 21 22
000
FTUS43 KLBF 271700
TAFVTN
TAF
KVTN 271735Z 2718/2818 19010KT P6SM BKN050 OVC080
     FM272000 29012G20KT P6SM OVC100
     FM280000 29005KT P6SM BKN100
     FM280500 VRB03KT P6SM BKN250
     FM281600 16007KT P6SM SCT250=

USA.gov is the U.S. government's official web portal to all federal, state and local government web resources and services.